Time;durP1;ratioP1;P1;durP2;ratioP2;P2;SDS_P1;SDS_P2;PMS_P1;PMS_P2;Temp;Humidity;BMP_temperature;BMP_pressure;BME280_temperature;BME280_humidity;BME280_pressure;Samples;Min_cycle;Max_cycle;Signal;HPM_P1;HPM_P2
2022/09/05 04:30:28;;;;;;;15.63;11.77;;;;;;;12.69;100.00;101161.25;6717306;26;233137;-90
2022/09/05 04:33:58;;;;;;;18.52;11.80;;;;;;;12.69;100.00;101161.25;6697144;26;33517;-90
2022/09/05 04:37:07;;;;;;;15.23;11.32;;;;;;;12.25;100.00;101162.31;6691732;26;34383;-88
2022/09/05 04:40:35;;;;;;;15.85;10.75;;;;;;;12.38;100.00;101162.66;6697052;26;34019;-88
2022/09/05 04:43:54;;;;;;;14.00;10.90;;;;;;;12.53;100.00;101169.91;6690299;26;34636;-89
2022/09/05 04:47:15;;;;;;;12.07;10.80;;;;;;;12.63;100.00;101173.03;6676541;26;33813;-89
2022/09/05 04:50:22;;;;;;;12.43;9.48;;;;;;;12.76;100.00;101172.47;6669978;26;33776;-89
2022/09/05 04:53:53;;;;;;;14.02;9.70;;;;;;;12.88;100.00;101179.87;6688739;26;33693;-88
2022/09/05 04:57:12;;;;;;;15.25;10.07;;;;;;;13.07;100.00;101174.56;6695747;26;35357;-92
2022/09/05 05:00:31;;;;;;;15.25;10.52;;;;;;;13.15;100.00;101186.66;6695793;26;33831;-88
2022/09/05 05:03:54;;;;;;;13.18;10.10;;;;;;;13.25;100.00;101185.28;6695897;26;34046;-88
2022/09/05 05:07:27;;;;;;;10.80;9.13;;;;;;;13.28;100.00;101184.28;6695578;26;34400;-88
2022/09/05 05:10:43;;;;;;;13.70;9.27;;;;;;;13.47;100.00;101190.47;6697006;26;35011;-88
2022/09/05 05:14:12;;;;;;;13.88;9.60;;;;;;;13.53;100.00;101185.78;6696420;26;34848;-88
2022/09/05 05:17:38;;;;;;;13.90;8.93;;;;;;;13.58;100.00;101195.25;6696322;26;34424;-88
2022/09/05 05:21:08;;;;;;;10.75;9.20;;;;;;;13.70;100.00;101199.13;6697671;26;35170;-89
2022/09/05 05:24:17;;;;;;;;;;;;;;;13.81;100.00;101203.91;6698057;26;34043;-89
2022/09/05 05:27:24;;;;;;;19.35;9.50;;;;;;;13.86;100.00;101204.56;6697729;26;34214;-89
2022/09/05 05:30:31;;;;;;;11.23;9.40;;;;;;;13.99;100.00;101195.94;6693354;26;33620;-88
2022/09/05 05:33:37;;;;;;;10.55;9.45;;;;;;;14.09;100.00;101198.97;6690429;26;33741;-88
2022/09/05 05:36:49;;;;;;;10.15;8.65;;;;;;;14.19;100.00;101204.72;6689873;26;33806;-89
2022/09/05 05:40:04;;;;;;;9.73;8.32;;;;;;;14.30;100.00;101205.00;6689007;26;33615;-88
2022/09/05 05:43:41;;;;;;;9.52;8.23;;;;;;;14.51;100.00;101210.16;6669905;26;32372;-88
2022/09/05 05:46:59;;;;;;;;;;;;;;;14.59;100.00;101215.94;6689122;26;33836;-88
2022/09/05 05:50:24;;;;;;;9.43;7.65;;;;;;;14.76;100.00;101209.75;6690408;26;35018;-88
2022/09/05 05:53:52;;;;;;;10.88;8.18;;;;;;;14.93;100.00;101210.63;6672453;26;34852;-88
2022/09/05 05:57:07;;;;;;;8.98;7.95;;;;;;;15.14;100.00;101213.06;6694282;26;34291;-89
2022/09/05 06:00:18;;;;;;;10.70;8.00;;;;;;;15.38;100.00;101212.63;6694658;26;34427;-89
2022/09/05 06:03:38;;;;;;;9.75;7.65;;;;;;;15.73;100.00;101212.41;6689704;26;33571;-88
2022/09/05 06:07:15;;;;;;;11.52;7.80;;;;;;;15.90;100.00;101214.09;6691874;26;33608;-86
2022/09/05 06:10:45;;;;;;;12.32;7.37;;;;;;;16.13;100.00;101210.09;6691151;26;33713;-86
2022/09/05 06:14:37;;;;;;;7.50;6.73;;;;;;;16.27;100.00;101214.62;6693494;26;33610;-86
2022/09/05 06:18:20;;;;;;;10.90;7.20;;;;;;;16.53;100.00;101222.00;6694329;26;34270;-86
2022/09/05 06:21:50;;;;;;;9.07;7.03;;;;;;;16.79;98.09;101225.75;6692789;26;34861;-86
2022/09/05 06:25:34;;;;;;;9.80;6.30;;;;;;;17.20;94.97;101224.09;6690819;26;34794;-85
2022/09/05 06:29:01;;;;;;;9.32;6.35;;;;;;;17.80;92.86;101221.13;6694423;26;34297;-84
2022/09/05 06:32:17;;;;;;;10.48;6.70;;;;;;;18.34;89.66;101211.25;6701685;26;33547;-84
2022/09/05 06:35:33;;;;;;;8.70;5.95;;;;;;;18.61;86.53;101222.88;6695518;26;34100;-89
2022/09/05 06:39:12;;;;;;;11.25;6.55;;;;;;;19.27;83.69;101225.38;6690637;26;37077;-89
2022/09/05 06:42:49;;;;;;;10.68;6.20;;;;;;;20.08;79.46;101214.03;6689530;26;33764;-88
2022/09/05 06:46:08;;;;;;;7.55;5.50;;;;;;;20.87;73.72;101220.53;6670627;26;34089;-88
2022/09/05 06:49:42;;;;;;;11.07;5.82;;;;;;;20.67;72.55;101220.22;6688622;26;34202;-87
2022/09/05 06:53:08;;;;;;;15.43;6.00;;;;;;;21.11;74.44;101220.37;6689964;26;34523;-89
2022/09/05 06:56:43;;;;;;;7.43;5.72;;;;;;;20.74;76.12;101217.91;6670820;26;33599;-92
2022/09/05 06:59:55;;;;;;;9.20;6.15;;;;;;;20.55;77.20;101221.19;6688341;26;33885;-87
2022/09/05 07:03:36;;;;;;;6.35;5.35;;;;;;;20.21;77.13;101216.63;6688384;26;34295;-87
2022/09/05 07:07:04;;;;;;;5.87;5.28;;;;;;;20.34;75.47;101224.59;6689494;26;34003;-90
2022/09/05 07:10:23;;;;;;;5.43;4.95;;;;;;;20.43;75.80;101223.03;6688509;26;34623;-89
2022/09/05 07:13:54;;;;;;;5.55;4.95;;;;;;;20.68;73.51;101230.06;6688542;26;34205;-88
2022/09/05 07:17:19;;;;;;;7.72;5.28;;;;;;;20.81;71.90;101231.78;6689097;26;35145;-89
2022/09/05 07:20:36;;;;;;;11.38;4.78;;;;;;;21.34;71.32;101223.03;6689155;26;34924;-89
2022/09/05 07:24:14;;;;;;;6.85;4.55;;;;;;;21.25;71.53;101223.78;6669353;26;32296;-89
2022/09/05 07:27:52;;;;;;;5.50;4.95;;;;;;;22.68;65.94;101222.63;6669854;26;33964;-89
2022/09/05 07:31:19;;;;;;;10.38;5.75;;;;;;;23.19;63.26;101228.09;6669066;26;34146;-89
2022/09/05 07:34:41;;;;;;;6.20;5.20;;;;;;;23.87;60.11;101226.47;6668162;26;34068;-89
2022/09/05 07:37:46;;;;;;;9.52;5.32;;;;;;;23.57;60.51;101225.59;6689351;26;33784;-89
2022/09/05 07:55:25;;;;;;;6.68;4.55;;;;;;;29.02;43.03;101224.34;6693080;26;20070;-87
2022/09/05 07:58:54;;;;;;;12.93;5.17;;;;;;;27.27;45.91;101222.75;6685337;26;35221;-88
2022/09/05 08:02:01;;;;;;;5.07;4.50;;;;;;;28.69;43.13;101218.12;6671446;26;32253;-89
2022/09/05 08:05:05;;;;;;;6.53;4.68;;;;;;;29.31;43.28;101220.09;6670530;26;33862;-88
2022/09/05 08:08:16;;;;;;;6.55;4.55;;;;;;;30.07;41.84;101217.66;6673193;26;32279;-90
2022/09/05 08:11:23;;;;;;;8.38;4.40;;;;;;;30.33;39.68;101214.53;6693067;26;33919;-89
2022/09/05 08:14:36;;;;;;;7.50;4.47;;;;;;;30.03;39.75;101214.44;6676219;26;33238;-90
2022/09/05 08:18:04;;;;;;;5.57;4.40;;;;;;;29.48;43.58;101216.44;6694072;26;34323;-89
2022/09/05 08:21:33;;;;;;;6.60;3.72;;;;;;;29.57;42.95;101213.44;6693564;26;34488;-90
2022/09/05 08:24:54;;;;;;;8.98;4.30;;;;;;;29.50;42.86;101206.19;6694693;26;34274;-89
2022/09/05 08:28:06;;;;;;;6.80;4.07;;;;;;;28.65;41.82;101210.31;6694271;26;33934;-90
2022/09/05 08:31:15;;;;;;;4.85;3.58;;;;;;;28.76;41.61;101210.97;6691802;26;33898;-89
2022/09/05 08:34:43;;;;;;;5.35;3.50;;;;;;;28.45;40.59;101209.84;6670361;26;33535;-90
2022/09/05 08:37:53;;;;;;;3.72;3.42;;;;;;;28.13;39.38;101206.16;6694248;26;34230;-92
2022/09/05 09:04:36;;;;;;;5.30;4.07;;;;;;;28.87;40.10;101201.56;6600237;26;20071;-90
2022/09/05 09:53:48;;;;;;;5.12;4.03;;;;;;;31.49;32.77;101171.09;6636202;26;20078;-89
2022/09/05 09:56:57;;;;;;;7.33;3.80;;;;;;;31.56;32.81;101173.88;6635071;26;32481;-89
2022/09/05 10:00:12;;;;;;;7.07;3.60;;;;;;;31.16;32.47;101169.69;6651302;26;33975;-90
2022/09/05 10:03:34;;;;;;;3.90;3.60;;;;;;;31.59;33.07;101160.62;6692795;26;33799;-89
2022/09/05 10:07:10;;;;;;;6.82;3.95;;;;;;;30.76;32.66;101155.50;6675521;26;33862;-90
2022/09/05 10:10:54;;;;;;;5.80;3.50;;;;;;;31.18;33.54;101162.09;6692757;26;33860;-89
2022/09/05 10:14:35;;;;;;;3.47;3.17;;;;;;;33.37;30.25;101161.38;6669918;26;33361;-88
2022/09/05 10:21:48;;;;;;;3.60;3.30;;;;;;;35.60;25.09;101161.56;6691342;26;20059;-89
2022/09/05 10:25:37;;;;;;;3.62;3.33;;;;;;;34.68;26.55;101144.28;6668393;26;33097;-90
2022/09/05 10:29:11;;;;;;;4.60;4.00;;;;;;;32.64;27.89;101145.28;6684447;26;35763;-90
2022/09/05 10:40:13;;;;;;;4.45;3.45;;;;;;;32.02;29.09;101138.84;6685617;26;20082;-89
2022/09/05 10:43:27;;;;;;;3.60;3.30;;;;;;;32.06;29.65;101131.87;6683898;26;34017;-90
2022/09/05 10:46:30;;;;;;;4.12;3.80;;;;;;;32.87;28.25;101124.87;6690378;26;34851;-90
2022/09/05 10:50:27;;;;;;;4.37;3.50;;;;;;;33.56;27.02;101119.34;6689977;26;34225;-90
2022/09/05 10:53:42;;;;;;;9.90;3.60;;;;;;;37.45;23.51;101111.91;6689178;26;35583;-89
2022/09/05 10:56:49;;;;;;;6.87;3.70;;;;;;;37.82;22.05;101112.78;6669523;26;32762;-88
2022/09/05 11:00:09;;;;;;;4.28;3.83;;;;;;;36.77;22.92;101109.34;6689872;26;33911;-88
2022/09/05 11:03:50;;;;;;;3.83;3.30;;;;;;;33.99;26.70;101097.91;6663092;26;33394;-86
2022/09/05 11:07:16;;;;;;;5.78;3.80;;;;;;;32.98;27.93;101095.97;6680833;26;34074;-89
2022/09/05 11:10:42;;;;;;;4.28;3.55;;;;;;;31.85;29.45;101090.63;6688381;26;36315;-92
2022/09/05 11:13:48;;;;;;;7.30;3.90;;;;;;;31.52;30.79;101098.59;6670900;26;33557;-89
2022/09/05 11:21:11;;;;;;;4.25;3.85;;;;;;;30.92;32.52;101099.69;6684027;26;20059;-89
2022/09/05 11:31:51;;;;;;;4.20;3.80;;;;;;;30.78;32.36;101087.72;6690356;26;20355;-89
2022/09/05 11:35:23;;;;;;;4.65;4.00;;;;;;;31.54;31.13;101091.84;6669381;26;34007;-87
2022/09/05 11:38:58;;;;;;;3.90;3.60;;;;;;;30.01;32.42;101081.66;6684454;26;34216;-88
2022/09/05 11:42:35;;;;;;;5.35;4.30;;;;;;;29.93;33.23;101077.97;6686454;26;34746;-89
2022/09/05 12:09:10;;;;;;;4.45;4.05;;;;;;;28.25;36.37;101070.28;6682620;26;20063;-88
2022/09/05 12:12:34;;;;;;;4.28;3.60;;;;;;;28.62;36.02;101060.56;6661275;26;33877;-89
2022/09/05 12:27:31;;;;;;;4.60;4.20;;;;;;;28.88;35.46;101050.37;6682728;26;20063;-88
2022/09/05 12:38:54;;;;;;;6.37;4.00;;;;;;;28.48;36.29;101051.28;6662678;26;20054;-90
2022/09/05 12:42:40;;;;;;;4.90;4.00;;;;;;;28.21;36.06;101039.75;6671024;26;33290;-91
2022/09/05 12:46:34;;;;;;;4.53;4.10;;;;;;;28.41;36.47;101044.81;6691285;26;34302;-90
2022/09/05 12:50:10;;;;;;;6.22;4.35;;;;;;;28.30;36.25;101037.03;6670624;26;33822;-90
2022/09/05 12:53:19;;;;;;;4.85;4.30;;;;;;;28.03;36.60;101031.84;6669864;26;33671;-89
2022/09/05 12:56:58;;;;;;;7.18;4.12;;;;;;;27.48;38.34;101033.47;6690852;26;34135;-89
2022/09/05 13:00:22;;;;;;;7.72;4.68;;;;;;;27.42;38.62;101024.13;6675560;26;32831;-90
2022/09/05 13:04:21;;;;;;;5.57;4.57;;;;;;;27.15;39.94;101031.62;6677760;26;33272;-90
2022/09/05 13:07:42;;;;;;;5.68;4.43;;;;;;;26.52;40.79;101023.84;6691381;26;34019;-89
2022/09/05 13:10:52;;;;;;;5.68;5.07;;;;;;;27.03;40.68;101017.50;6691300;26;33937;-90
2022/09/05 13:14:21;;;;;;;7.72;4.50;;;;;;;27.42;37.58;101014.09;6669803;26;33547;-89
2022/09/05 13:17:58;;;;;;;7.68;4.28;;;;;;;27.54;38.01;101016.41;6688538;26;33905;-88
2022/09/05 13:21:07;;;;;;;7.07;3.90;;;;;;;27.50;38.31;101007.75;6689612;26;33569;-89
2022/09/05 13:24:26;;;;;;;4.97;4.27;;;;;;;27.64;38.04;101008.94;6690654;26;34244;-89
2022/09/05 13:27:38;;;;;;;5.93;4.00;;;;;;;27.97;37.04;101008.00;6689923;26;33511;-88
2022/09/05 13:30:55;;;;;;;4.87;4.47;;;;;;;27.93;37.20;101009.38;6670046;26;32593;-88
2022/09/05 13:38:06;;;;;;;7.10;4.35;;;;;;;27.41;37.35;101000.63;6690623;26;34132;-89
2022/09/05 13:41:33;;;;;;;4.50;4.10;;;;;;;27.71;36.66;100992.75;6675940;26;32575;-89
2022/09/05 13:44:45;;;;;;;4.90;4.35;;;;;;;27.82;37.47;100999.69;6687854;26;35172;-89
2022/09/05 13:47:57;;;;;;;6.87;4.30;;;;;;;28.05;36.68;100993.50;6691541;26;33888;-89
2022/09/05 13:51:29;;;;;;;7.68;4.47;;;;;;;28.02;37.08;100996.56;6665331;26;32932;-89
2022/09/05 13:54:39;;;;;;;4.95;4.18;;;;;;;27.85;37.40;100997.47;6662594;26;34022;-89
2022/09/05 13:58:06;;;;;;;5.97;4.15;;;;;;;27.63;37.55;100996.34;6653325;26;34606;-89
2022/09/05 14:05:12;;;;;;;4.30;4.00;;;;;;;27.63;38.01;100981.88;6683668;26;20053;-87
2022/09/05 14:08:24;;;;;;;4.00;3.70;;;;;;;27.45;38.81;100978.31;6692308;26;34878;-88
2022/09/05 14:12:01;;;;;;;4.40;4.00;;;;;;;27.29;38.28;100978.31;6689981;26;34855;-87
2022/09/05 14:15:12;;;;;;;9.68;4.37;;;;;;;27.16;38.95;100976.97;6688972;26;35019;-88
2022/09/05 14:18:25;;;;;;;8.48;4.43;;;;;;;26.93;39.94;100968.66;6690749;26;33755;-88
2022/09/05 14:21:32;;;;;;;7.47;3.95;;;;;;;26.84;40.62;100969.66;6669422;26;33317;-88
2022/09/05 14:24:40;;;;;;;7.00;4.28;;;;;;;26.81;40.80;100962.69;6668512;26;32429;-87
2022/09/05 14:28:08;;;;;;;7.00;4.70;;;;;;;26.87;40.17;100955.72;6688324;26;33979;-88
2022/09/05 14:31:20;;;;;;;4.30;3.85;;;;;;;26.67;41.59;100969.66;6689166;26;34782;-87
2022/09/05 14:34:55;;;;;;;4.07;3.62;;;;;;;26.68;40.25;100962.31;6669618;26;34304;-88
2022/09/05 14:38:42;;;;;;;4.05;3.70;;;;;;;26.68;40.78;100962.31;6688358;26;34078;-88
2022/09/05 14:42:06;;;;;;;4.60;3.67;;;;;;;26.56;40.31;100959.94;6689346;26;34489;-89
